| time (UTC) | temp C | wind direction | speed KPH | gust KPH | rain 1hr cm | rain 24hr cm | rain mn cm | humidity % | barometer mb |
| 20260507134750 | 10 | 299 | 6.4 | 12.9 | 0.00 | 0.00 | 0.00 | 59 | 1012.0 |
| 20260507134246 | 10 | 331 | 4.8 | 12.9 | 0.00 | 0.00 | 0.00 | 58 | 1012.2 |
| 20260507133742 | 10 | 307 | 3.2 | 11.3 | 0.00 | 0.00 | 0.00 | 59 | 1012.1 |
| 20260507133239 | 10 | 344 | 3.2 | 8.0 | 0.00 | 0.00 | 0.00 | 60 | 1012.2 |
| 20260507132737 | 10 | 345 | 4.8 | 9.7 | 0.00 | 0.00 | 0.00 | 61 | 1012.0 |
| 20260507132233 | 10 | 332 | 4.8 | 8.0 | 0.00 | 0.00 | 0.00 | 62 | 1012.0 |
| 20260507131730 | 10 | 305 | 6.4 | 9.7 | 0.00 | 0.00 | 0.00 | 63 | 1012.3 |
| 20260507131227 | 10 | 303 | 3.2 | 8.0 | 0.00 | 0.00 | 0.00 | 65 | 1012.3 |
| 20260507130724 | 10 | 297 | 4.8 | 8.0 | 0.00 | 0.00 | 0.00 | 66 | 1012.3 |
| 20260507130222 | 10 | 323 | 4.8 | 8.0 | 0.00 | 0.00 | 0.00 | 65 | 1012.2 |
| 20260507125720 | 9 | 328 | 3.2 | 8.0 | 0.00 | 0.00 | 0.00 | 67 | 1012.3 |
| 20260507125217 | 9 | 309 | 6.4 | 11.3 | 0.00 | 0.00 | 0.00 | 65 | 1012.2 |
| 20260507124714 | 9 | 35 | 3.2 | 4.8 | 0.00 | 0.00 | 0.00 | 66 | 1012.1 |
| 20260507124211 | 9 | 0 | 4.8 | 8.0 | 0.00 | 0.00 | 0.00 | 68 | 1012.1 |
| 20260507123709 | 8 | 335 | 1.6 | 4.8 | 0.00 | 0.00 | 0.00 | 70 | 1012.3 |
| 20260507123206 | 8 | 352 | 3.2 | 4.8 | 0.00 | 0.00 | 0.00 | 71 | 1012.2 |
| 20260507122701 | 8 | 8 | 1.6 | 3.2 | 0.00 | 0.00 | 0.00 | 73 | 1012.1 |
| 20260507122157 | 8 | 336 | 1.6 | 4.8 | 0.00 | 0.00 | 0.00 | 74 | 1012.3 |
| 20260507121653 | 8 | 18 | 0.0 | 3.2 | 0.00 | 0.00 | 0.00 | 77 | 1012.1 |
| 20260507121149 | 7 | 350 | 0.0 | 3.2 | 0.00 | 0.00 | 0.00 | 78 | 1012.2 |
| 20260507120646 | 7 | 325 | 1.6 | 3.2 | 0.00 | 0.00 | 0.00 | 79 | 1012.2 |
| 20260507120143 | 7 | 343 | 0.0 | 1.6 | 0.00 | 0.00 | 0.00 | 83 | 1012.2 |
| 20260507115639 | 7 | 26 | 1.6 | 4.8 | 0.00 | 0.00 | 0.00 | 87 | 1012.2 |
| 20260507115134 | 6 | 25 | 0.0 | 0.0 | 0.00 | 0.00 | 0.00 | 93 | 1012.1 |
| 20260507114630 | 5 | 20 | 0.0 | 0.0 | 0.00 | 0.00 | 0.00 | 96 | 1012.4 |
| 20260507114128 | 5 | 25 | 0.0 | 0.0 | 0.00 | 0.00 | 0.00 | 98 | 1012.0 |
| 20260507113625 | 5 | 11 | 0.0 | 0.0 | 0.00 | 0.00 | 0.00 | 98 | 1012.0 |
| 20260507113122 | 4 | 28 | 0.0 | 0.0 | 0.00 | 0.00 | 0.00 | 99 | 1012.1 |
| 20260507112620 | 4 | 31 | 0.0 | 0.0 | 0.00 | 0.00 | 0.00 | 99 | 1012.1 |
| 20260507112116 | 3 | 4 | 0.0 | 0.0 | 0.00 | 0.00 | 0.00 | 99 | 1012.1 |
| 20260507111614 | 3 | 22 | 0.0 | 0.0 | 0.00 | 0.00 | 0.00 | 99 | 1012.2 |
| 20260507111110 | 3 | 44 | 0.0 | 0.0 | 0.00 | 0.00 | 0.00 | 99 | 1012.0 |
| 20260507110607 | 3 | 26 | 0.0 | 0.0 | 0.00 | 0.00 | 0.00 | 99 | 1011.9 |
| 20260507110103 | 3 | 110 | 0.0 | 0.0 | 0.00 | 0.00 | 0.00 | 99 | 1011.9 |
| 20260507105600 | 3 | 29 | 0.0 | 0.0 | 0.00 | 0.00 | 0.00 | 99 | 1011.7 |
| 20260507105056 | 3 | 31 | 0.0 | 0.0 | 0.00 | 0.00 | 0.00 | 99 | 1011.8 |
| 20260507104554 | 3 | 89 | 0.0 | 0.0 | 0.00 | 0.00 | 0.00 | 99 | 1011.6 |
| 20260507104050 | 3 | 25 | 0.0 | 0.0 | 0.00 | 0.00 | 0.00 | 99 | 1011.5 |
| 20260507103546 | 3 | 356 | 0.0 | 0.0 | 0.00 | 0.00 | 0.00 | 99 | 1011.7 |
| 20260507103043 | 3 | 51 | 0.0 | 0.0 | 0.00 | 0.00 | 0.00 | 99 | 1011.4 |
| 20260507102539 | 3 | 22 | 0.0 | 0.0 | 0.00 | 0.00 | 0.00 | 99 | 1011.4 |
| 20260507102036 | 3 | 2 | 0.0 | 0.0 | 0.00 | 0.00 | 0.00 | 99 | 1011.6 |
| 20260507101531 | 3 | 68 | 0.0 | 0.0 | 0.00 | 0.00 | 0.00 | 99 | 1011.5 |
| 20260507101028 | 3 | 55 | 0.0 | 0.0 | 0.00 | 0.00 | 0.00 | 99 | 1011.5 |
| 20260507100525 | 4 | 19 | 0.0 | 0.0 | 0.00 | 0.00 | 0.00 | 99 | 1011.4 |
| 20260507100023 | 4 | 37 | 0.0 | 0.0 | 0.00 | 0.00 | 0.00 | 99 | 1011.6 |
| 20260507095521 | 4 | 109 | 0.0 | 0.0 | 0.00 | 0.00 | 0.00 | 99 | 1011.4 |
| 20260507095017 | 4 | 95 | 0.0 | 0.0 | 0.00 | 0.00 | 0.00 | 99 | 1011.5 |
| 20260507094514 | 4 | 55 | 0.0 | 0.0 | 0.00 | 0.00 | 0.00 | 99 | 1011.5 |
| 20260507094011 | 4 | 126 | 0.0 | 0.0 | 0.00 | 0.00 | 0.00 | 99 | 1011.5 |
| 20260507093508 | 3 | 4 | 0.0 | 0.0 | 0.00 | 0.00 | 0.00 | 99 | 1011.6 |
| 20260507093007 | 4 | 34 | 0.0 | 0.0 | 0.00 | 0.00 | 0.00 | 99 | 1011.4 |
| 20260507092503 | 4 | 26 | 0.0 | 0.0 | 0.00 | 0.00 | 0.00 | 99 | 1011.5 |
| 20260507092000 | 4 | 5 | 0.0 | 0.0 | 0.00 | 0.00 | 0.00 | 99 | 1011.3 |
| 20260507091456 | 4 | 19 | 0.0 | 0.0 | 0.00 | 0.00 | 0.00 | 99 | 1011.5 |
| 20260507090952 | 4 | 31 | 0.0 | 0.0 | 0.00 | 0.00 | 0.00 | 99 | 1011.2 |
| 20260507090448 | 4 | 34 | 0.0 | 0.0 | 0.00 | 0.00 | 0.00 | 99 | 1011.4 |
| 20260507085944 | 4 | 32 | 0.0 | 0.0 | 0.00 | 0.00 | 0.00 | 99 | 1010.9 |
| 20260507085442 | 4 | 56 | 0.0 | 0.0 | 0.00 | 0.00 | 0.00 | 99 | 1011.0 |
| 20260507084939 | 4 | 49 | 0.0 | 0.0 | 0.00 | 0.00 | 0.00 | 99 | 1011.2 |
| 20260507084435 | 4 | 21 | 0.0 | 0.0 | 0.00 | 0.00 | 0.00 | 99 | 1011.2 |
| 20260507083933 | 4 | 16 | 0.0 | 0.0 | 0.00 | 0.00 | 0.00 | 99 | 1011.2 |
| 20260507083429 | 4 | 42 | 0.0 | 0.0 | 0.00 | 0.00 | 0.00 | 99 | 1011.0 |
| 20260507082925 | 4 | 82 | 0.0 | 0.0 | 0.00 | 0.00 | 0.00 | 99 | 1011.1 |
| 20260507082421 | 5 | 353 | 0.0 | 1.6 | 0.00 | 0.00 | 0.00 | 99 | 1011.2 |
| 20260507081918 | 5 | 60 | 0.0 | 0.0 | 0.00 | 0.00 | 0.00 | 99 | 1011.2 |
| 20260507081414 | 5 | 113 | 0.0 | 0.0 | 0.00 | 0.00 | 0.00 | 99 | 1010.8 |
| 20260507080911 | 5 | 77 | 0.0 | 0.0 | 0.00 | 0.00 | 0.00 | 99 | 1011.1 |
| 20260507080408 | 5 | 49 | 0.0 | 0.0 | 0.00 | 0.00 | 0.00 | 99 | 1011.0 |
| 20260507075903 | 5 | 38 | 0.0 | 0.0 | 0.00 | 0.00 | 0.00 | 99 | 1011.0 |
| 20260507075359 | 5 | 17 | 0.0 | 0.0 | 0.00 | 0.00 | 0.00 | 99 | 1010.9 |
| 20260507074856 | 5 | 22 | 0.0 | 0.0 | 0.00 | 0.00 | 0.00 | 99 | 1010.8 |
| 20260507074353 | 5 | 358 | 0.0 | 0.0 | 0.00 | 0.00 | 0.00 | 99 | 1011.0 |
| 20260507073850 | 5 | 64 | 0.0 | 0.0 | 0.00 | 0.00 | 0.00 | 99 | 1011.1 |
| 20260507073347 | 5 | 11 | 0.0 | 0.0 | 0.00 | 0.00 | 0.00 | 99 | 1011.0 |
| 20260507072844 | 5 | 59 | 0.0 | 0.0 | 0.00 | 0.00 | 0.00 | 99 | 1011.1 |
| 20260507072341 | 5 | 67 | 0.0 | 0.0 | 0.00 | 0.00 | 0.00 | 99 | 1010.8 |
| 20260507071839 | 5 | 19 | 0.0 | 0.0 | 0.00 | 0.00 | 0.00 | 99 | 1010.8 |
| 20260507071336 | 5 | 22 | 0.0 | 0.0 | 0.00 | 0.00 | 0.00 | 99 | 1011.0 |
| 20260507070832 | 5 | 19 | 0.0 | 0.0 | 0.00 | 0.00 | 0.00 | 99 | 1011.2 |
| 20260507070329 | 5 | 12 | 0.0 | 0.0 | 0.00 | 0.00 | 0.00 | 99 | 1010.8 |
| 20260507065826 | 5 | 18 | 0.0 | 0.0 | 0.00 | 0.00 | 0.00 | 99 | 1011.1 |
| 20260507065323 | 5 | 18 | 0.0 | 0.0 | 0.00 | 0.00 | 0.00 | 99 | 1011.0 |
| 20260507064820 | 5 | 16 | 0.0 | 0.0 | 0.00 | 0.00 | 0.00 | 99 | 1011.2 |
| 20260507064318 | 5 | 16 | 0.0 | 0.0 | 0.00 | 0.00 | 0.00 | 99 | 1010.9 |
| 20260507063816 | 5 | 19 | 0.0 | 0.0 | 0.00 | 0.00 | 0.00 | 99 | 1011.1 |
| 20260507063313 | 5 | 16 | 0.0 | 0.0 | 0.00 | 0.00 | 0.00 | 99 | 1011.1 |
| 20260507062809 | 5 | 16 | 0.0 | 0.0 | 0.00 | 0.00 | 0.00 | 99 | 1011.4 |
| 20260507062307 | 5 | 16 | 0.0 | 0.0 | 0.00 | 0.00 | 0.00 | 99 | 1011.2 |
| 20260507061805 | 5 | 16 | 0.0 | 0.0 | 0.00 | 0.00 | 0.00 | 99 | 1011.3 |
| 20260507061302 | 5 | 16 | 0.0 | 0.0 | 0.00 | 0.00 | 0.00 | 99 | 1011.3 |
| 20260507060800 | 5 | 16 | 0.0 | 0.0 | 0.00 | 0.00 | 0.00 | 99 | 1011.0 |
| 20260507060256 | 5 | 16 | 0.0 | 0.0 | 0.00 | 0.00 | 0.00 | 99 | 1011.3 |
| 20260507055753 | 5 | 16 | 0.0 | 0.0 | 0.00 | 0.00 | 0.00 | 99 | 1011.3 |
| 20260507055248 | 5 | 16 | 0.0 | 0.0 | 0.00 | 0.00 | 0.00 | 99 | 1011.4 |
| 20260507054745 | 5 | 16 | 0.0 | 0.0 | 0.00 | 0.00 | 0.00 | 99 | 1011.5 |
| 20260507054242 | 5 | 16 | 0.0 | 0.0 | 0.00 | 0.00 | 0.00 | 99 | 1011.3 |
| 20260507053739 | 5 | 16 | 0.0 | 0.0 | 0.00 | 0.00 | 0.00 | 99 | 1011.4 |
| 20260507053236 | 5 | 13 | 0.0 | 0.0 | 0.00 | 0.00 | 0.00 | 99 | 1011.3 |
| 20260507052735 | 5 | 13 | 0.0 | 0.0 | 0.00 | 0.00 | 0.00 | 99 | 1011.4 |
| 20260507052231 | 6 | 13 | 0.0 | 0.0 | 0.00 | 0.00 | 0.00 | 99 | 1011.3 |
| 20260507051729 | 6 | 13 | 0.0 | 0.0 | 0.00 | 0.00 | 0.00 | 99 | 1011.4 |
| 20260507051226 | 5 | 13 | 0.0 | 0.0 | 0.00 | 0.00 | 0.00 | 99 | 1011.4 |
| 20260507050723 | 6 | 13 | 0.0 | 0.0 | 0.00 | 0.00 | 0.00 | 99 | 1011.6 |
| 20260507050220 | 6 | 10 | 0.0 | 0.0 | 0.00 | 0.00 | 0.00 | 99 | 1011.3 |
| 20260507045716 | 6 | 13 | 0.0 | 0.0 | 0.00 | 0.00 | 0.00 | 99 | 1011.7 |
| 20260507045212 | 6 | 13 | 0.0 | 0.0 | 0.00 | 0.00 | 0.00 | 99 | 1011.5 |
| 20260507044710 | 6 | 13 | 0.0 | 0.0 | 0.00 | 0.00 | 0.00 | 99 | 1011.5 |
| 20260507044206 | 6 | 14 | 0.0 | 0.0 | 0.00 | 0.00 | 0.00 | 99 | 1011.4 |
| 20260507043703 | 6 | 13 | 0.0 | 0.0 | 0.00 | 0.00 | 0.00 | 99 | 1011.5 |
| 20260507043200 | 6 | 13 | 0.0 | 0.0 | 0.00 | 0.00 | 0.00 | 99 | 1011.4 |
| 20260507042656 | 6 | 13 | 0.0 | 0.0 | 0.00 | 0.00 | 0.00 | 99 | 1011.1 |
| 20260507042151 | 6 | 13 | 0.0 | 0.0 | 0.00 | 0.00 | 0.00 | 99 | 1011.3 |
| 20260507041648 | 6 | 0 | 0.0 | 0.0 | 0.00 | 0.00 | 0.00 | 99 | 1011.6 |
| 20260507041144 | 7 | 14 | 0.0 | 0.0 | 0.00 | 0.00 | 0.00 | 99 | 1011.4 |
| 20260507040642 | 7 | 13 | 0.0 | 0.0 | 0.00 | 0.00 | 0.00 | 99 | 1011.5 |
| 20260507040138 | 7 | 13 | 0.0 | 0.0 | 0.00 | 0.00 | 0.00 | 98 | 1011.5 |
| 20260507035634 | 7 | 13 | 0.0 | 0.0 | 0.00 | 1.47 | 1.47 | 98 | 1011.4 |
| 20260507035130 | 7 | 12 | 0.0 | 0.0 | 0.00 | 1.47 | 1.47 | 98 | 1011.3 |
| 20260507034627 | 7 | 10 | 0.0 | 0.0 | 0.00 | 1.47 | 1.47 | 98 | 1011.2 |
| 20260507034125 | 7 | 37 | 0.0 | 0.0 | 0.00 | 1.47 | 1.47 | 98 | 1011.3 |
| 20260507033623 | 7 | 294 | 0.0 | 0.0 | 0.00 | 1.47 | 1.47 | 98 | 1011.3 |
| 20260507033120 | 7 | 16 | 0.0 | 0.0 | 0.00 | 1.47 | 1.47 | 98 | 1011.2 |
| 20260507032617 | 7 | 17 | 0.0 | 0.0 | 0.00 | 1.47 | 1.47 | 97 | 1011.2 |
| 20260507032113 | 7 | 16 | 0.0 | 0.0 | 0.00 | 1.47 | 1.47 | 97 | 1011.3 |
| 20260507031610 | 7 | 24 | 0.0 | 0.0 | 0.00 | 1.47 | 1.47 | 97 | 1011.3 |
| 20260507031106 | 7 | 17 | 0.0 | 0.0 | 0.00 | 1.47 | 1.47 | 97 | 1011.3 |
| 20260507030603 | 7 | 16 | 0.0 | 0.0 | 0.00 | 1.47 | 1.47 | 96 | 1011.2 |
| 20260507030101 | 7 | 17 | 0.0 | 0.0 | 0.00 | 1.47 | 1.47 | 96 | 1011.3 |
| 20260507025558 | 7 | 16 | 0.0 | 0.0 | 0.00 | 1.47 | 1.47 | 95 | 1011.6 |
| 20260507025055 | 8 | 16 | 0.0 | 0.0 | 0.00 | 1.47 | 1.47 | 95 | 1011.4 |
| 20260507024553 | 8 | 16 | 0.0 | 0.0 | 0.00 | 1.47 | 1.47 | 94 | 1011.5 |
| 20260507024050 | 8 | 16 | 0.0 | 0.0 | 0.00 | 1.47 | 1.47 | 94 | 1011.4 |
| 20260507023545 | 8 | 16 | 0.0 | 0.0 | 0.00 | 1.47 | 1.47 | 93 | 1011.4 |
| 20260507023043 | 8 | 16 | 0.0 | 0.0 | 0.00 | 1.47 | 1.47 | 92 | 1011.5 |
| 20260507022540 | 8 | 16 | 0.0 | 0.0 | 0.00 | 1.47 | 1.47 | 92 | 1011.5 |
| 20260507022035 | 8 | 16 | 0.0 | 0.0 | 0.00 | 1.47 | 1.47 | 91 | 1011.4 |
| 20260507021531 | 8 | 16 | 0.0 | 0.0 | 0.00 | 1.47 | 1.47 | 90 | 1011.4 |
| 20260507021028 | 9 | 16 | 0.0 | 0.0 | 0.00 | 1.47 | 1.47 | 89 | 1011.3 |
| 20260507020526 | 9 | 16 | 0.0 | 0.0 | 0.00 | 1.47 | 1.47 | 89 | 1011.0 |
| 20260507020022 | 9 | 16 | 0.0 | 0.0 | 0.00 | 1.47 | 1.47 | 88 | 1010.9 |
| 20260507015521 | 10 | 16 | 0.0 | 0.0 | 0.00 | 1.47 | 1.47 | 87 | 1011.0 |
| 20260507015018 | 10 | 16 | 0.0 | 0.0 | 0.00 | 1.47 | 1.47 | 87 | 1011.0 |
| 20260507014514 | 10 | 16 | 0.0 | 0.0 | 0.00 | 1.47 | 1.47 | 86 | 1010.7 |
| 20260507014010 | 10 | 16 | 0.0 | 0.0 | 0.00 | 1.47 | 1.47 | 86 | 1011.0 |
| 20260507013507 | 10 | 16 | 0.0 | 0.0 | 0.00 | 1.47 | 1.47 | 85 | 1011.0 |
| 20260507013004 | 10 | 16 | 0.0 | 0.0 | 0.00 | 1.47 | 1.47 | 84 | 1010.7 |
| 20260507012501 | 10 | 16 | 0.0 | 0.0 | 0.00 | 1.47 | 1.47 | 83 | 1010.6 |
| 20260507011957 | 10 | 16 | 0.0 | 0.0 | 0.00 | 1.47 | 1.47 | 83 | 1010.7 |
| 20260507011454 | 10 | 17 | 0.0 | 0.0 | 0.00 | 1.47 | 1.47 | 82 | 1010.7 |
| 20260507010950 | 10 | 16 | 0.0 | 0.0 | 0.00 | 1.47 | 1.47 | 81 | 1010.7 |
| 20260507010445 | 10 | 16 | 0.0 | 0.0 | 0.00 | 1.47 | 1.47 | 80 | 1010.6 |
| 20260507005942 | 11 | 16 | 0.0 | 0.0 | 0.00 | 1.47 | 1.47 | 79 | 1010.4 |
| 20260507005439 | 11 | 16 | 0.0 | 0.0 | 0.00 | 1.47 | 1.47 | 77 | 1010.4 |
| 20260507004935 | 11 | 16 | 0.0 | 0.0 | 0.00 | 1.47 | 1.47 | 76 | 1010.7 |
| 20260507004432 | 12 | 15 | 0.0 | 0.0 | 0.00 | 1.47 | 1.47 | 73 | 1010.7 |
| 20260507003930 | 12 | 329 | 0.0 | 0.0 | 0.00 | 1.47 | 1.47 | 70 | 1010.6 |
| 20260507003425 | 12 | 328 | 0.0 | 0.0 | 0.00 | 1.47 | 1.47 | 68 | 1010.3 |
| 20260507002920 | 12 | 317 | 0.0 | 0.0 | 0.00 | 1.47 | 1.47 | 66 | 1010.3 |
| 20260507002417 | 13 | 328 | 0.0 | 0.0 | 0.00 | 1.47 | 1.47 | 65 | 1010.2 |
| 20260507001914 | 13 | 313 | 0.0 | 1.6 | 0.00 | 1.47 | 1.47 | 64 | 1010.1 |
| 20260507001410 | 13 | 323 | 0.0 | 3.2 | 0.00 | 1.47 | 1.47 | 64 | 1010.0 |
| 20260507000908 | 13 | 349 | 3.2 | 4.8 | 0.00 | 1.47 | 1.47 | 63 | 1010.0 |
| 20260507000405 | 13 | 304 | 1.6 | 1.6 | 0.00 | 1.47 | 1.47 | 63 | 1010.1 |
| 20260506235859 | 13 | 348 | 1.6 | 3.2 | 0.00 | 1.47 | 1.47 | 62 | 1010.0 |
| 20260506235357 | 13 | 302 | 1.6 | 4.8 | 0.00 | 1.47 | 1.47 | 61 | 1010.0 |
| 20260506234852 | 13 | 344 | 3.2 | 8.0 | 0.00 | 1.47 | 1.47 | 61 | 1010.0 |
| 20260506234350 | 13 | 287 | 3.2 | 8.0 | 0.00 | 1.47 | 1.47 | 61 | 1009.8 |
| 20260506233848 | 13 | 322 | 3.2 | 4.8 | 0.00 | 1.47 | 1.47 | 62 | 1010.4 |
| 20260506233343 | 13 | 317 | 1.6 | 3.2 | 0.00 | 1.47 | 1.47 | 62 | 1010.1 |
| 20260506232841 | 13 | 8 | 1.6 | 3.2 | 0.00 | 1.47 | 1.47 | 61 | 1009.9 |
| 20260506232336 | 13 | 2 | 4.8 | 4.8 | 0.00 | 1.47 | 1.47 | 60 | 1010.1 |
| 20260506231833 | 13 | 27 | 4.8 | 4.8 | 0.00 | 1.47 | 1.47 | 62 | 1009.9 |
| 20260506231331 | 14 | 19 | 1.6 | 4.8 | 0.00 | 1.47 | 1.47 | 60 | 1009.9 |
| 20260506230828 | 14 | 330 | 3.2 | 8.0 | 0.00 | 1.47 | 1.47 | 58 | 1010.0 |
| 20260506230325 | 14 | 333 | 3.2 | 8.0 | 0.00 | 1.47 | 1.47 | 60 | 1010.2 |
| 20260506225820 | 14 | 301 | 4.8 | 4.8 | 0.00 | 1.47 | 1.47 | 59 | 1010.0 |
| 20260506225318 | 14 | 321 | 8.0 | 9.7 | 0.00 | 1.47 | 1.47 | 59 | 1010.3 |
| 20260506224815 | 15 | 343 | 8.0 | 9.7 | 0.00 | 1.47 | 1.47 | 58 | 1010.0 |
| 20260506224312 | 14 | 358 | 8.0 | 12.9 | 0.00 | 1.47 | 1.47 | 59 | 1010.2 |
| 20260506223808 | 14 | 335 | 8.0 | 9.7 | 0.00 | 1.47 | 1.47 | 59 | 1010.2 |
| 20260506223303 | 14 | 310 | 4.8 | 4.8 | 0.00 | 1.47 | 1.47 | 60 | 1010.3 |
| 20260506222801 | 14 | 32 | 4.8 | 9.7 | 0.00 | 1.47 | 1.47 | 60 | 1010.2 |
| 20260506222256 | 14 | 321 | 4.8 | 4.8 | 0.00 | 1.47 | 1.47 | 59 | 1010.3 |
| 20260506221755 | 14 | 356 | 4.8 | 9.7 | 0.00 | 1.47 | 1.47 | 58 | 1010.3 |
| 20260506221252 | 14 | 285 | 4.8 | 4.8 | 0.00 | 1.47 | 1.47 | 60 | 1010.2 |
| 20260506220750 | 14 | 13 | 4.8 | 8.0 | 0.00 | 1.47 | 1.47 | 60 | 1010.2 |
| 20260506220244 | 14 | 19 | 3.2 | 4.8 | 0.00 | 1.47 | 1.47 | 60 | 1010.3 |
| 20260506215741 | 14 | 323 | 4.8 | 8.0 | 0.00 | 1.47 | 1.47 | 59 | 1010.4 |
| 20260506215237 | 14 | 18 | 3.2 | 3.2 | 0.00 | 1.47 | 1.47 | 58 | 1010.6 |
| 20260506214733 | 14 | 346 | 1.6 | 9.7 | 0.00 | 1.47 | 1.47 | 59 | 1010.3 |
| 20260506214231 | 14 | 314 | 6.4 | 9.7 | 0.00 | 1.47 | 1.47 | 57 | 1010.2 |
| 20260506213729 | 14 | 323 | 6.4 | 8.0 | 0.00 | 1.47 | 1.47 | 58 | 1010.1 |
| 20260506213226 | 14 | 293 | 6.4 | 11.3 | 0.00 | 1.47 | 1.47 | 56 | 1010.3 |
| 20260506212723 | 14 | 350 | 4.8 | 9.7 | 0.00 | 1.47 | 1.47 | 56 | 1010.0 |
| 20260506212218 | 14 | 349 | 0.0 | 4.8 | 0.00 | 1.47 | 1.47 | 58 | 1010.2 |
| 20260506211714 | 15 | 15 | 3.2 | 8.0 | 0.00 | 1.47 | 1.47 | 57 | 1010.1 |
| 20260506211210 | 15 | 307 | 4.8 | 4.8 | 0.00 | 1.47 | 1.47 | 58 | 1010.0 |
| 20260506210708 | 14 | 311 | 1.6 | 11.3 | 0.00 | 1.47 | 1.47 | 58 | 1010.1 |
| 20260506210204 | 14 | 326 | 4.8 | 8.0 | 0.00 | 1.47 | 1.47 | 57 | 1010.0 |
| 20260506205702 | 14 | 358 | 3.2 | 4.8 | 0.00 | 1.47 | 1.47 | 59 | 1009.8 |
| 20260506205156 | 14 | 338 | 1.6 | 4.8 | 0.00 | 1.47 | 1.47 | 59 | 1009.9 |
| 20260506204654 | 14 | 305 | 8.0 | 9.7 | 0.00 | 1.47 | 1.47 | 57 | 1009.9 |
| 20260506204151 | 14 | 27 | 4.8 | 4.8 | 0.00 | 1.47 | 1.47 | 57 | 1009.9 |
| 20260506203649 | 14 | 18 | 3.2 | 8.0 | 0.00 | 1.47 | 1.47 | 57 | 1009.8 |
| 20260506203146 | 14 | 56 | 6.4 | 9.7 | 0.00 | 1.47 | 1.47 | 58 | 1009.9 |
| 20260506202644 | 14 | 325 | 0.0 | 8.0 | 0.00 | 1.47 | 1.47 | 58 | 1010.0 |
| 20260506202139 | 14 | 346 | 3.2 | 4.8 | 0.00 | 1.47 | 1.47 | 58 | 1010.1 |
| 20260506201636 | 15 | 309 | 4.8 | 8.0 | 0.00 | 1.47 | 1.47 | 57 | 1009.9 |
| 20260506201133 | 14 | 0 | 1.6 | 4.8 | 0.00 | 1.47 | 1.47 | 58 | 1010.0 |
| 20260506200630 | 14 | 280 | 8.0 | 11.3 | 0.00 | 1.47 | 1.47 | 56 | 1010.0 |
| 20260506200127 | 14 | 295 | 8.0 | 16.1 | 0.00 | 1.47 | 1.47 | 57 | 1009.9 |
| 20260506195623 | 14 | 333 | 6.4 | 9.7 | 0.00 | 1.47 | 1.47 | 58 | 1009.8 |
| 20260506195119 | 15 | 340 | 1.6 | 8.0 | 0.00 | 1.47 | 1.47 | 60 | 1009.8 |
| 20260506194617 | 15 | 337 | 1.6 | 8.0 | 0.00 | 1.47 | 1.47 | 59 | 1009.7 |
| 20260506194113 | 15 | 352 | 1.6 | 8.0 | 0.00 | 1.47 | 1.47 | 59 | 1009.9 |
| 20260506193611 | 15 | 334 | 3.2 | 9.7 | 0.00 | 1.47 | 1.47 | 57 | 1009.8 |
| 20260506193108 | 15 | 308 | 9.7 | 14.5 | 0.00 | 1.47 | 1.47 | 56 | 1009.8 |
| 20260506192605 | 15 | 32 | 3.2 | 11.3 | 0.00 | 1.47 | 1.47 | 57 | 1009.6 |
| 20260506192101 | 15 | 46 | 3.2 | 8.0 | 0.00 | 1.47 | 1.47 | 57 | 1009.4 |
| 20260506191557 | 15 | 329 | 3.2 | 3.2 | 0.00 | 1.47 | 1.47 | 58 | 1009.4 |
| 20260506191053 | 15 | 17 | 3.2 | 8.0 | 0.00 | 1.47 | 1.47 | 56 | 1009.5 |
| 20260506190551 | 15 | 3 | 1.6 | 8.0 | 0.00 | 1.47 | 1.47 | 55 | 1009.5 |
| 20260506190048 | 15 | 348 | 0.0 | 3.2 | 0.00 | 1.47 | 1.47 | 55 | 1009.5 |
| 20260506185545 | 15 | 55 | 11.3 | 16.1 | 0.00 | 1.47 | 1.47 | 53 | 1009.6 |
| 20260506185042 | 15 | 306 | 4.8 | 9.7 | 0.00 | 1.47 | 1.47 | 54 | 1009.5 |
| 20260506184539 | 15 | 335 | 4.8 | 8.0 | 0.00 | 1.47 | 1.47 | 58 | 1009.8 |
| 20260506184036 | 15 | 1 | 4.8 | 9.7 | 0.00 | 1.47 | 1.47 | 59 | 1009.6 |
| 20260506183532 | 15 | 320 | 1.6 | 3.2 | 0.00 | 1.47 | 1.47 | 58 | 1009.5 |
| 20260506183029 | 15 | 3 | 3.2 | 4.8 | 0.00 | 1.47 | 1.47 | 57 | 1009.8 |
| 20260506182526 | 15 | 352 | 6.4 | 9.7 | 0.00 | 1.47 | 1.47 | 57 | 1009.6 |
| 20260506182023 | 15 | 339 | 8.0 | 9.7 | 0.00 | 1.47 | 1.47 | 58 | 1009.6 |
| 20260506181521 | 15 | 51 | 8.0 | 14.5 | 0.00 | 1.47 | 1.47 | 57 | 1009.6 |
| 20260506181018 | 15 | 334 | 4.8 | 9.7 | 0.00 | 1.47 | 1.47 | 59 | 1009.6 |
| 20260506180514 | 15 | 27 | 1.6 | 8.0 | 0.00 | 1.47 | 1.47 | 57 | 1009.8 |
| 20260506180011 | 15 | 13 | 4.8 | 14.5 | 0.00 | 1.47 | 1.47 | 57 | 1009.6 |
| 20260506175508 | 15 | 20 | 6.4 | 20.9 | 0.00 | 1.47 | 1.47 | 56 | 1009.5 |
| 20260506175004 | 15 | 330 | 1.6 | 4.8 | 0.00 | 1.47 | 1.47 | 55 | 1009.7 |
| 20260506174502 | 15 | 16 | 6.4 | 9.7 | 0.00 | 1.47 | 1.47 | 54 | 1010.0 |
| 20260506173958 | 15 | 33 | 4.8 | 4.8 | 0.00 | 1.47 | 1.47 | 58 | 1009.8 |
| 20260506173456 | 15 | 2 | 4.8 | 14.5 | 0.00 | 1.47 | 1.47 | 57 | 1010.0 |
| 20260506172952 | 15 | 257 | 1.6 | 9.7 | 0.00 | 1.47 | 1.47 | 58 | 1009.9 |
| 20260506172450 | 15 | 6 | 11.3 | 12.9 | 0.00 | 1.47 | 1.47 | 58 | 1009.9 |
| 20260506171946 | 15 | 32 | 1.6 | 8.0 | 0.00 | 1.47 | 1.47 | 60 | 1009.8 |
| 20260506171444 | 15 | 20 | 3.2 | 9.7 | 0.00 | 1.47 | 1.47 | 59 | 1010.0 |
| 20260506170941 | 15 | 14 | 1.6 | 4.8 | 0.00 | 1.47 | 1.47 | 60 | 1009.9 |
| 20260506170437 | 15 | 333 | 3.2 | 12.9 | 0.00 | 1.47 | 1.47 | 60 | 1009.9 |
| 20260506165930 | 15 | 321 | 4.8 | 8.0 | 0.00 | 1.47 | 1.47 | 59 | 1010.1 |
| 20260506165428 | 14 | 353 | 4.8 | 9.7 | 0.00 | 1.47 | 1.47 | 58 | 1010.0 |
| 20260506164918 | 14 | 338 | 8.0 | 11.3 | 0.00 | 1.47 | 1.47 | 59 | 1010.1 |
| 20260506164415 | 14 | 329 | 1.6 | 3.2 | 0.00 | 1.47 | 1.47 | 64 | 1010.1 |
| 20260506163908 | 13 | 17 | 4.8 | 8.0 | 0.00 | 1.47 | 1.47 | 62 | 1009.9 |
| 20260506163402 | 13 | 302 | 9.7 | 12.9 | 0.00 | 1.47 | 1.47 | 64 | 1010.1 |
| 20260506162857 | 13 | 9 | 1.6 | 8.0 | 0.00 | 1.47 | 1.47 | 64 | 1010.1 |
| 20260506162355 | 13 | 340 | 8.0 | 12.9 | 0.00 | 1.47 | 1.47 | 65 | 1009.9 |
| 20260506161852 | 13 | 329 | 6.4 | 8.0 | 0.00 | 1.47 | 1.47 | 65 | 1010.0 |
| 20260506161350 | 13 | 313 | 1.6 | 8.0 | 0.00 | 1.47 | 1.47 | 67 | 1010.0 |
| 20260506160847 | 13 | 38 | 3.2 | 9.7 | 0.00 | 1.47 | 1.47 | 68 | 1009.9 |
| 20260506160344 | 13 | 25 | 4.8 | 11.3 | 0.00 | 1.47 | 1.47 | 67 | 1010.0 |
| 20260506155843 | 13 | 6 | 4.8 | 12.9 | 0.00 | 1.47 | 1.47 | 67 | 1009.9 |
| 20260506155339 | 13 | 127 | 4.8 | 9.7 | 0.00 | 1.47 | 1.47 | 65 | 1010.0 |
| 20260506153456 | 12 | 49 | 3.2 | 9.7 | 0.00 | 1.47 | 1.47 | 67 | 1009.8 |
| 20260506152954 | 12 | 347 | 3.2 | 4.8 | 0.00 | 1.47 | 1.47 | 68 | 1009.9 |
| 20260506152450 | 12 | 52 | 8.0 | 11.3 | 0.00 | 1.47 | 1.47 | 67 | 1010.2 |
| 20260506151949 | 12 | 320 | 0.0 | 4.8 | 0.00 | 1.47 | 1.47 | 70 | 1009.9 |
| 20260506151446 | 12 | 133 | 1.6 | 4.8 | 0.00 | 1.47 | 1.47 | 66 | 1009.8 |
| 20260506150943 | 12 | 348 | 1.6 | 11.3 | 0.00 | 1.47 | 1.47 | 67 | 1010.0 |
| 20260506150439 | 12 | 348 | 3.2 | 3.2 | 0.00 | 1.47 | 1.47 | 70 | 1009.5 |
| 20260506145937 | 12 | 33 | 6.4 | 12.9 | 0.00 | 1.47 | 1.47 | 68 | 1009.3 |
| 20260506145433 | 11 | 70 | 4.8 | 9.7 | 0.00 | 1.47 | 1.47 | 70 | 1009.3 |
| 20260506144931 | 11 | 309 | 3.2 | 4.8 | 0.00 | 1.47 | 1.47 | 71 | 1009.2 |
| 20260506144427 | 11 | 42 | 9.7 | 16.1 | 0.00 | 1.47 | 1.47 | 70 | 1009.2 |
| 20260506143925 | 11 | 28 | 4.8 | 11.3 | 0.00 | 1.47 | 1.47 | 72 | 1008.8 |
| 20260506143422 | 11 | 12 | 6.4 | 11.3 | 0.00 | 1.47 | 1.47 | 73 | 1009.0 |
| 20260506142920 | 11 | 356 | 6.4 | 11.3 | 0.00 | 1.47 | 1.47 | 73 | 1008.9 |
| 20260506142418 | 11 | 26 | 9.7 | 11.3 | 0.00 | 1.47 | 1.47 | 75 | 1008.8 |
| 20260506141916 | 10 | 305 | 4.8 | 8.0 | 0.00 | 1.47 | 1.47 | 77 | 1008.9 |
| 20260506141414 | 10 | 24 | 4.8 | 9.7 | 0.00 | 1.47 | 1.47 | 78 | 1008.9 |
| 20260506140912 | 10 | 339 | 6.4 | 12.9 | 0.00 | 1.47 | 1.47 | 79 | 1009.0 |
| 20260506140408 | 10 | 356 | 14.5 | 17.7 | 0.00 | 1.47 | 1.47 | 79 | 1008.9 |
| 20260506135905 | 10 | 356 | 6.4 | 9.7 | 0.00 | 1.47 | 1.47 | 80 | 1008.6 |
| 20260506135402 | 10 | 32 | 6.4 | 14.5 | 0.00 | 1.47 | 1.47 | 82 | 1008.5 |